sensor_id;sensor_type;location;lat;lon;timestamp;temperature;humidity
25192;DHT22;13143;50.924;5.320;2022-08-30T00:00:22;20.40;91.70
25192;DHT22;13143;50.924;5.320;2022-08-30T00:03:09;20.30;92.00
25192;DHT22;13143;50.924;5.320;2022-08-30T00:05:38;20.30;91.80
25192;DHT22;13143;50.924;5.320;2022-08-30T00:08:04;20.30;91.90
25192;DHT22;13143;50.924;5.320;2022-08-30T00:10:30;20.20;91.90
25192;DHT22;13143;50.924;5.320;2022-08-30T00:12:56;20.20;92.00
25192;DHT22;13143;50.924;5.320;2022-08-30T00:15:23;20.20;92.10
25192;DHT22;13143;50.924;5.320;2022-08-30T00:17:48;20.20;92.10
25192;DHT22;13143;50.924;5.320;2022-08-30T00:20:18;20.20;92.20
25192;DHT22;13143;50.924;5.320;2022-08-30T00:22:46;20.10;92.10
25192;DHT22;13143;50.924;5.320;2022-08-30T00:25:13;20.10;92.20
25192;DHT22;13143;50.924;5.320;2022-08-30T00:27:39;20.10;92.30
25192;DHT22;13143;50.924;5.320;2022-08-30T00:30:05;20.10;92.30
25192;DHT22;13143;50.924;5.320;2022-08-30T00:32:31;20.10;92.30
25192;DHT22;13143;50.924;5.320;2022-08-30T00:34:57;20.00;92.50
25192;DHT22;13143;50.924;5.320;2022-08-30T00:37:23;20.00;92.50
25192;DHT22;13143;50.924;5.320;2022-08-30T00:39:49;20.00;92.80
25192;DHT22;13143;50.924;5.320;2022-08-30T00:42:17;20.00;92.70
25192;DHT22;13143;50.924;5.320;2022-08-30T00:44:43;19.90;92.70
25192;DHT22;13143;50.924;5.320;2022-08-30T00:47:09;19.90;92.80
25192;DHT22;13143;50.924;5.320;2022-08-30T00:49:36;19.90;93.10
25192;DHT22;13143;50.924;5.320;2022-08-30T00:52:05;19.90;93.10
25192;DHT22;13143;50.924;5.320;2022-08-30T00:54:33;19.90;93.10
25192;DHT22;13143;50.924;5.320;2022-08-30T00:57:01;19.90;93.20
25192;DHT22;13143;50.924;5.320;2022-08-30T00:59:27;19.90;93.10
25192;DHT22;13143;50.924;5.320;2022-08-30T01:01:53;19.80;93.20
25192;DHT22;13143;50.924;5.320;2022-08-30T01:04:21;19.80;93.10
25192;DHT22;13143;50.924;5.320;2022-08-30T01:06:48;19.70;93.30
25192;DHT22;13143;50.924;5.320;2022-08-30T01:09:15;19.70;93.50
25192;DHT22;13143;50.924;5.320;2022-08-30T01:11:42;19.70;93.60
25192;DHT22;13143;50.924;5.320;2022-08-30T01:14:10;19.70;93.60
25192;DHT22;13143;50.924;5.320;2022-08-30T01:16:37;19.70;93.50
25192;DHT22;13143;50.924;5.320;2022-08-30T01:19:05;19.70;93.60
25192;DHT22;13143;50.924;5.320;2022-08-30T01:24:48;19.60;93.70
25192;DHT22;13143;50.924;5.320;2022-08-30T01:27:15;19.70;93.70
25192;DHT22;13143;50.924;5.320;2022-08-30T01:29:42;19.60;93.70
25192;DHT22;13143;50.924;5.320;2022-08-30T01:32:17;19.60;93.70
25192;DHT22;13143;50.924;5.320;2022-08-30T01:34:44;19.60;93.80
25192;DHT22;13143;50.924;5.320;2022-08-30T01:37:19;19.60;93.80
25192;DHT22;13143;50.924;5.320;2022-08-30T01:39:46;19.60;94.10
25192;DHT22;13143;50.924;5.320;2022-08-30T01:42:14;19.60;93.90
25192;DHT22;13143;50.924;5.320;2022-08-30T01:44:42;19.50;93.80
25192;DHT22;13143;50.924;5.320;2022-08-30T01:47:07;19.50;93.90
25192;DHT22;13143;50.924;5.320;2022-08-30T01:49:33;19.50;94.00
25192;DHT22;13143;50.924;5.320;2022-08-30T01:51:58;19.50;94.20
25192;DHT22;13143;50.924;5.320;2022-08-30T01:54:24;19.50;94.10
25192;DHT22;13143;50.924;5.320;2022-08-30T01:56:50;19.40;94.20
25192;DHT22;13143;50.924;5.320;2022-08-30T01:59:16;19.50;94.30
25192;DHT22;13143;50.924;5.320;2022-08-30T02:01:42;19.40;94.70
25192;DHT22;13143;50.924;5.320;2022-08-30T02:04:08;19.40;94.60
25192;DHT22;13143;50.924;5.320;2022-08-30T02:06:37;19.40;94.40
25192;DHT22;13143;50.924;5.320;2022-08-30T02:09:03;19.40;94.80
25192;DHT22;13143;50.924;5.320;2022-08-30T02:11:29;19.30;95.10
25192;DHT22;13143;50.924;5.320;2022-08-30T02:13:54;19.30;95.10
25192;DHT22;13143;50.924;5.320;2022-08-30T02:16:22;19.30;95.10
25192;DHT22;13143;50.924;5.320;2022-08-30T02:18:49;19.30;95.30
25192;DHT22;13143;50.924;5.320;2022-08-30T02:21:15;19.30;95.40
25192;DHT22;13143;50.924;5.320;2022-08-30T02:23:41;19.30;95.50
25192;DHT22;13143;50.924;5.320;2022-08-30T02:26:07;19.30;95.30
25192;DHT22;13143;50.924;5.320;2022-08-30T02:28:33;19.20;95.30
25192;DHT22;13143;50.924;5.320;2022-08-30T02:30:59;19.20;95.40
25192;DHT22;13143;50.924;5.320;2022-08-30T02:33:25;19.20;95.40
25192;DHT22;13143;50.924;5.320;2022-08-30T02:35:51;19.20;95.30
25192;DHT22;13143;50.924;5.320;2022-08-30T02:38:17;19.20;95.40
25192;DHT22;13143;50.924;5.320;2022-08-30T02:40:42;19.20;95.50
25192;DHT22;13143;50.924;5.320;2022-08-30T02:43:09;19.20;95.70
25192;DHT22;13143;50.924;5.320;2022-08-30T02:45:35;19.20;95.80
25192;DHT22;13143;50.924;5.320;2022-08-30T02:48:01;19.20;95.80
25192;DHT22;13143;50.924;5.320;2022-08-30T02:50:27;19.20;95.80
25192;DHT22;13143;50.924;5.320;2022-08-30T02:52:53;19.10;96.30
25192;DHT22;13143;50.924;5.320;2022-08-30T02:55:18;19.10;96.30
25192;DHT22;13143;50.924;5.320;2022-08-30T02:57:44;19.10;96.20
25192;DHT22;13143;50.924;5.320;2022-08-30T03:00:14;19.10;96.20
25192;DHT22;13143;50.924;5.320;2022-08-30T03:02:40;19.10;96.10
25192;DHT22;13143;50.924;5.320;2022-08-30T03:05:08;19.10;96.50
25192;DHT22;13143;50.924;5.320;2022-08-30T03:07:33;19.10;96.20
25192;DHT22;13143;50.924;5.320;2022-08-30T03:09:59;19.00;96.30
25192;DHT22;13143;50.924;5.320;2022-08-30T03:12:25;19.10;96.30
25192;DHT22;13143;50.924;5.320;2022-08-30T03:14:51;19.00;96.70
25192;DHT22;13143;50.924;5.320;2022-08-30T03:17:16;19.00;96.40
25192;DHT22;13143;50.924;5.320;2022-08-30T03:19:43;19.00;96.50
25192;DHT22;13143;50.924;5.320;2022-08-30T03:22:09;19.00;96.90
25192;DHT22;13143;50.924;5.320;2022-08-30T03:24:35;19.00;96.90
25192;DHT22;13143;50.924;5.320;2022-08-30T03:27:02;19.00;96.80
25192;DHT22;13143;50.924;5.320;2022-08-30T03:29:27;19.00;97.00
25192;DHT22;13143;50.924;5.320;2022-08-30T03:31:55;19.00;97.20
25192;DHT22;13143;50.924;5.320;2022-08-30T03:34:22;19.00;97.30
25192;DHT22;13143;50.924;5.320;2022-08-30T03:36:50;18.90;97.30
25192;DHT22;13143;50.924;5.320;2022-08-30T03:39:17;18.90;97.40
25192;DHT22;13143;50.924;5.320;2022-08-30T03:41:43;18.90;97.60
25192;DHT22;13143;50.924;5.320;2022-08-30T03:44:10;18.90;97.30
25192;DHT22;13143;50.924;5.320;2022-08-30T03:46:36;18.90;97.40
25192;DHT22;13143;50.924;5.320;2022-08-30T03:49:03;18.90;97.70
25192;DHT22;13143;50.924;5.320;2022-08-30T03:51:28;18.90;97.60
25192;DHT22;13143;50.924;5.320;2022-08-30T03:53:54;18.90;97.40
25192;DHT22;13143;50.924;5.320;2022-08-30T03:56:19;18.90;97.50
25192;DHT22;13143;50.924;5.320;2022-08-30T03:58:45;18.90;97.80
25192;DHT22;13143;50.924;5.320;2022-08-30T04:01:11;18.90;98.00
25192;DHT22;13143;50.924;5.320;2022-08-30T04:03:37;18.90;98.10
25192;DHT22;13143;50.924;5.320;2022-08-30T04:06:03;18.90;98.10
25192;DHT22;13143;50.924;5.320;2022-08-30T04:08:29;18.80;98.30
25192;DHT22;13143;50.924;5.320;2022-08-30T04:10:55;18.80;98.40
25192;DHT22;13143;50.924;5.320;2022-08-30T04:13:22;18.80;98.80
25192;DHT22;13143;50.924;5.320;2022-08-30T04:15:48;18.80;98.90
25192;DHT22;13143;50.924;5.320;2022-08-30T04:18:14;18.80;98.90
25192;DHT22;13143;50.924;5.320;2022-08-30T04:20:41;18.80;98.80
25192;DHT22;13143;50.924;5.320;2022-08-30T04:23:06;18.80;98.80
25192;DHT22;13143;50.924;5.320;2022-08-30T04:25:36;18.80;99.00
25192;DHT22;13143;50.924;5.320;2022-08-30T04:28:03;18.80;99.40
25192;DHT22;13143;50.924;5.320;2022-08-30T04:30:29;18.80;99.40
25192;DHT22;13143;50.924;5.320;2022-08-30T04:32:55;18.80;99.60
25192;DHT22;13143;50.924;5.320;2022-08-30T04:35:21;18.80;99.80
25192;DHT22;13143;50.924;5.320;2022-08-30T04:37:47;18.80;99.90
25192;DHT22;13143;50.924;5.320;2022-08-30T04:40:13;18.80;99.90
25192;DHT22;13143;50.924;5.320;2022-08-30T04:42:39;18.80;99.90
25192;DHT22;13143;50.924;5.320;2022-08-30T04:45:10;18.70;99.90
25192;DHT22;13143;50.924;5.320;2022-08-30T04:47:36;18.70;99.90
25192;DHT22;13143;50.924;5.320;2022-08-30T04:50:05;18.70;99.90
25192;DHT22;13143;50.924;5.320;2022-08-30T04:52:31;18.70;99.90
25192;DHT22;13143;50.924;5.320;2022-08-30T04:54:57;18.70;99.90
25192;DHT22;13143;50.924;5.320;2022-08-30T04:57:24;18.70;99.90
25192;DHT22;13143;50.924;5.320;2022-08-30T04:59:50;18.70;99.90
25192;DHT22;13143;50.924;5.320;2022-08-30T05:02:16;18.70;99.90
25192;DHT22;13143;50.924;5.320;2022-08-30T05:04:42;18.70;99.90
25192;DHT22;13143;50.924;5.320;2022-08-30T05:07:29;18.70;99.90
25192;DHT22;13143;50.924;5.320;2022-08-30T05:09:55;18.60;99.90
25192;DHT22;13143;50.924;5.320;2022-08-30T05:12:21;18.60;99.90
25192;DHT22;13143;50.924;5.320;2022-08-30T05:14:48;18.60;99.90
25192;DHT22;13143;50.924;5.320;2022-08-30T05:17:14;18.60;99.90
25192;DHT22;13143;50.924;5.320;2022-08-30T05:19:40;18.60;99.90
25192;DHT22;13143;50.924;5.320;2022-08-30T05:22:05;18.60;99.90
25192;DHT22;13143;50.924;5.320;2022-08-30T05:24:31;18.60;99.90
25192;DHT22;13143;50.924;5.320;2022-08-30T05:26:57;18.60;99.90
25192;DHT22;13143;50.924;5.320;2022-08-30T05:29:23;18.60;99.90
25192;DHT22;13143;50.924;5.320;2022-08-30T05:31:49;18.60;99.90
25192;DHT22;13143;50.924;5.320;2022-08-30T05:34:15;18.60;99.90
25192;DHT22;13143;50.924;5.320;2022-08-30T05:36:40;18.60;99.90
25192;DHT22;13143;50.924;5.320;2022-08-30T05:39:07;18.60;99.90
25192;DHT22;13143;50.924;5.320;2022-08-30T05:41:33;18.60;99.90
25192;DHT22;13143;50.924;5.320;2022-08-30T05:44:01;18.60;99.90
25192;DHT22;13143;50.924;5.320;2022-08-30T05:46:28;18.60;99.90
25192;DHT22;13143;50.924;5.320;2022-08-30T05:48:58;18.60;99.90
25192;DHT22;13143;50.924;5.320;2022-08-30T05:51:25;18.60;99.90
25192;DHT22;13143;50.924;5.320;2022-08-30T05:53:53;18.60;99.90
25192;DHT22;13143;50.924;5.320;2022-08-30T05:56:21;18.50;99.90
25192;DHT22;13143;50.924;5.320;2022-08-30T05:58:48;18.60;99.90
25192;DHT22;13143;50.924;5.320;2022-08-30T06:01:40;18.60;99.90
25192;DHT22;13143;50.924;5.320;2022-08-30T06:04:08;18.60;99.90
25192;DHT22;13143;50.924;5.320;2022-08-30T06:06:36;18.60;99.90
25192;DHT22;13143;50.924;5.320;2022-08-30T06:09:06;18.60;99.90
25192;DHT22;13143;50.924;5.320;2022-08-30T06:11:33;18.60;99.90
25192;DHT22;13143;50.924;5.320;2022-08-30T06:13:59;18.60;99.90
25192;DHT22;13143;50.924;5.320;2022-08-30T06:16:26;18.60;99.90
25192;DHT22;13143;50.924;5.320;2022-08-30T06:18:53;18.60;99.90
25192;DHT22;13143;50.924;5.320;2022-08-30T06:21:25;18.60;99.90
25192;DHT22;13143;50.924;5.320;2022-08-30T06:23:52;18.60;99.90
25192;DHT22;13143;50.924;5.320;2022-08-30T06:26:18;18.60;99.90
25192;DHT22;13143;50.924;5.320;2022-08-30T06:28:44;18.60;99.90
25192;DHT22;13143;50.924;5.320;2022-08-30T06:31:12;18.60;99.90
25192;DHT22;13143;50.924;5.320;2022-08-30T06:33:39;18.60;99.90
25192;DHT22;13143;50.924;5.320;2022-08-30T06:36:08;18.60;99.90
25192;DHT22;13143;50.924;5.320;2022-08-30T06:38:35;18.70;99.90
25192;DHT22;13143;50.924;5.320;2022-08-30T06:41:06;18.60;99.90
25192;DHT22;13143;50.924;5.320;2022-08-30T06:43:32;18.70;99.90
25192;DHT22;13143;50.924;5.320;2022-08-30T06:46:04;18.70;99.90
25192;DHT22;13143;50.924;5.320;2022-08-30T06:48:30;18.70;99.90
25192;DHT22;13143;50.924;5.320;2022-08-30T06:50:56;18.70;99.90
25192;DHT22;13143;50.924;5.320;2022-08-30T06:53:21;18.70;99.90
25192;DHT22;13143;50.924;5.320;2022-08-30T06:55:57;18.70;99.90
25192;DHT22;13143;50.924;5.320;2022-08-30T06:58:23;18.80;99.90
25192;DHT22;13143;50.924;5.320;2022-08-30T07:00:49;18.80;99.90
25192;DHT22;13143;50.924;5.320;2022-08-30T07:03:15;18.80;99.90
25192;DHT22;13143;50.924;5.320;2022-08-30T07:05:40;18.80;99.90
25192;DHT22;13143;50.924;5.320;2022-08-30T07:08:06;18.90;99.90
25192;DHT22;13143;50.924;5.320;2022-08-30T07:10:32;18.90;99.90
25192;DHT22;13143;50.924;5.320;2022-08-30T07:12:57;18.90;99.90
25192;DHT22;13143;50.924;5.320;2022-08-30T07:15:23;18.90;99.90
25192;DHT22;13143;50.924;5.320;2022-08-30T07:17:49;18.90;99.90
25192;DHT22;13143;50.924;5.320;2022-08-30T07:20:35;19.00;99.90
25192;DHT22;13143;50.924;5.320;2022-08-30T07:23:01;19.00;99.90
25192;DHT22;13143;50.924;5.320;2022-08-30T07:25:27;19.00;99.90
25192;DHT22;13143;50.924;5.320;2022-08-30T07:27:52;19.00;99.90
25192;DHT22;13143;50.924;5.320;2022-08-30T07:30:18;19.00;99.90
25192;DHT22;13143;50.924;5.320;2022-08-30T07:32:44;19.10;99.90
25192;DHT22;13143;50.924;5.320;2022-08-30T07:35:10;19.10;99.90
25192;DHT22;13143;50.924;5.320;2022-08-30T07:37:35;19.20;99.90
25192;DHT22;13143;50.924;5.320;2022-08-30T07:40:02;19.20;99.90
25192;DHT22;13143;50.924;5.320;2022-08-30T07:42:28;19.20;99.90
25192;DHT22;13143;50.924;5.320;2022-08-30T07:44:54;19.20;99.90
25192;DHT22;13143;50.924;5.320;2022-08-30T07:47:20;19.30;99.90
25192;DHT22;13143;50.924;5.320;2022-08-30T07:49:45;19.30;99.90
25192;DHT22;13143;50.924;5.320;2022-08-30T07:52:11;19.30;99.90
25192;DHT22;13143;50.924;5.320;2022-08-30T07:54:37;19.40;99.90
25192;DHT22;13143;50.924;5.320;2022-08-30T07:57:02;19.40;99.90
25192;DHT22;13143;50.924;5.320;2022-08-30T07:59:28;19.40;99.90
25192;DHT22;13143;50.924;5.320;2022-08-30T08:01:54;19.50;99.90
25192;DHT22;13143;50.924;5.320;2022-08-30T08:04:20;19.50;99.90
25192;DHT22;13143;50.924;5.320;2022-08-30T08:06:45;19.60;99.90
25192;DHT22;13143;50.924;5.320;2022-08-30T08:09:11;19.60;99.90
25192;DHT22;13143;50.924;5.320;2022-08-30T08:11:37;19.60;99.90
25192;DHT22;13143;50.924;5.320;2022-08-30T08:14:05;19.70;99.90
25192;DHT22;13143;50.924;5.320;2022-08-30T08:16:32;19.70;99.90
25192;DHT22;13143;50.924;5.320;2022-08-30T08:18:58;19.70;99.90
25192;DHT22;13143;50.924;5.320;2022-08-30T08:21:24;19.80;99.90
25192;DHT22;13143;50.924;5.320;2022-08-30T08:23:51;19.80;99.90
25192;DHT22;13143;50.924;5.320;2022-08-30T08:26:17;19.90;99.90
25192;DHT22;13143;50.924;5.320;2022-08-30T08:28:44;20.00;99.90
25192;DHT22;13143;50.924;5.320;2022-08-30T08:31:16;20.00;99.90
25192;DHT22;13143;50.924;5.320;2022-08-30T08:33:42;20.00;99.90
25192;DHT22;13143;50.924;5.320;2022-08-30T08:36:08;20.10;99.90
25192;DHT22;13143;50.924;5.320;2022-08-30T08:38:34;20.10;99.90
25192;DHT22;13143;50.924;5.320;2022-08-30T08:44:17;20.20;99.90
25192;DHT22;13143;50.924;5.320;2022-08-30T08:46:57;20.30;99.90
25192;DHT22;13143;50.924;5.320;2022-08-30T08:49:24;20.30;99.90
25192;DHT22;13143;50.924;5.320;2022-08-30T08:51:50;20.40;99.90
25192;DHT22;13143;50.924;5.320;2022-08-30T08:57:03;20.50;99.90
25192;DHT22;13143;50.924;5.320;2022-08-30T08:59:30;20.50;99.90
25192;DHT22;13143;50.924;5.320;2022-08-30T09:02:01;20.60;99.90
25192;DHT22;13143;50.924;5.320;2022-08-30T09:04:35;20.60;99.90
25192;DHT22;13143;50.924;5.320;2022-08-30T09:07:04;20.70;99.90
25192;DHT22;13143;50.924;5.320;2022-08-30T09:09:37;20.70;99.90
25192;DHT22;13143;50.924;5.320;2022-08-30T09:12:06;20.80;99.90
25192;DHT22;13143;50.924;5.320;2022-08-30T09:14:35;20.80;99.90
25192;DHT22;13143;50.924;5.320;2022-08-30T09:17:04;20.90;99.90
25192;DHT22;13143;50.924;5.320;2022-08-30T09:19:37;20.90;99.90
25192;DHT22;13143;50.924;5.320;2022-08-30T09:27:43;21.10;99.90
25192;DHT22;13143;50.924;5.320;2022-08-30T09:32:56;21.20;99.90
25192;DHT22;13143;50.924;5.320;2022-08-30T09:35:42;21.30;99.90
25192;DHT22;13143;50.924;5.320;2022-08-30T09:38:10;21.30;99.90
25192;DHT22;13143;50.924;5.320;2022-08-30T09:40:39;21.40;99.90
25192;DHT22;13143;50.924;5.320;2022-08-30T09:43:30;21.40;99.90
25192;DHT22;13143;50.924;5.320;2022-08-30T10:05:27;21.80;99.90
25192;DHT22;13143;50.924;5.320;2022-08-30T10:10:56;21.90;99.90
25192;DHT22;13143;50.924;5.320;2022-08-30T10:13:32;22.00;99.90
25192;DHT22;13143;50.924;5.320;2022-08-30T10:24:25;22.20;99.90
25192;DHT22;13143;50.924;5.320;2022-08-30T10:27:39;22.20;99.90
25192;DHT22;13143;50.924;5.320;2022-08-30T10:29:56;22.20;99.90
25192;DHT22;13143;50.924;5.320;2022-08-30T10:35:12;22.30;99.40
25192;DHT22;13143;50.924;5.320;2022-08-30T10:37:43;22.40;99.30
25192;DHT22;13143;50.924;5.320;2022-08-30T10:40:30;22.40;99.20
25192;DHT22;13143;50.924;5.320;2022-08-30T10:43:25;22.50;99.00
25192;DHT22;13143;50.924;5.320;2022-08-30T10:45:56;22.60;99.10
25192;DHT22;13143;50.924;5.320;2022-08-30T10:48:27;22.60;99.10
25192;DHT22;13143;50.924;5.320;2022-08-30T10:50:56;22.60;99.20
25192;DHT22;13143;50.924;5.320;2022-08-30T10:53:43;22.70;99.30
25192;DHT22;13143;50.924;5.320;2022-08-30T10:56:16;22.70;99.20
25192;DHT22;13143;50.924;5.320;2022-08-30T10:58:45;22.70;99.20
25192;DHT22;13143;50.924;5.320;2022-08-30T11:12:36;23.00;98.80
25192;DHT22;13143;50.924;5.320;2022-08-30T11:15:26;23.00;98.40
25192;DHT22;13143;50.924;5.320;2022-08-30T11:20:39;23.10;98.30
25192;DHT22;13143;50.924;5.320;2022-08-30T11:23:26;23.20;98.30
25192;DHT22;13143;50.924;5.320;2022-08-30T11:33:52;23.40;97.70
25192;DHT22;13143;50.924;5.320;2022-08-30T11:41:38;23.50;97.70
25192;DHT22;13143;50.924;5.320;2022-08-30T11:46:50;23.60;97.70
25192;DHT22;13143;50.924;5.320;2022-08-30T11:54:52;23.70;97.40
25192;DHT22;13143;50.924;5.320;2022-08-30T12:00:34;23.80;97.00
25192;DHT22;13143;50.924;5.320;2022-08-30T12:10:38;23.90;96.50
25192;DHT22;13143;50.924;5.320;2022-08-30T12:13:05;24.00;96.60
25192;DHT22;13143;50.924;5.320;2022-08-30T12:15:53;24.00;96.50
25192;DHT22;13143;50.924;5.320;2022-08-30T12:18:25;24.00;95.90
25192;DHT22;13143;50.924;5.320;2022-08-30T12:20:56;24.10;96.20
25192;DHT22;13143;50.924;5.320;2022-08-30T12:26:27;24.10;96.10
25192;DHT22;13143;50.924;5.320;2022-08-30T12:31:43;24.20;95.40
25192;DHT22;13143;50.924;5.320;2022-08-30T12:34:27;24.20;95.80
25192;DHT22;13143;50.924;5.320;2022-08-30T12:37:27;24.20;95.50
25192;DHT22;13143;50.924;5.320;2022-08-30T12:42:38;24.40;95.00
25192;DHT22;13143;50.924;5.320;2022-08-30T12:45:14;24.30;94.90
25192;DHT22;13143;50.924;5.320;2022-08-30T12:47:53;24.40;94.60
25192;DHT22;13143;50.924;5.320;2022-08-30T12:50:26;24.40;94.20
25192;DHT22;13143;50.924;5.320;2022-08-30T12:55:29;24.50;94.10
25192;DHT22;13143;50.924;5.320;2022-08-30T12:58:08;24.50;94.10
25192;DHT22;13143;50.924;5.320;2022-08-30T13:00:44;24.50;93.60
25192;DHT22;13143;50.924;5.320;2022-08-30T13:03:34;24.60;93.40
25192;DHT22;13143;50.924;5.320;2022-08-30T13:06:02;24.60;92.90
25192;DHT22;13143;50.924;5.320;2022-08-30T13:08:47;24.60;92.90
25192;DHT22;13143;50.924;5.320;2022-08-30T13:13:52;24.70;92.80
25192;DHT22;13143;50.924;5.320;2022-08-30T13:19:04;24.70;92.60
25192;DHT22;13143;50.924;5.320;2022-08-30T13:21:52;24.70;92.10
25192;DHT22;13143;50.924;5.320;2022-08-30T13:24:18;24.80;91.60
25192;DHT22;13143;50.924;5.320;2022-08-30T13:26:44;24.80;91.70
25192;DHT22;13143;50.924;5.320;2022-08-30T13:29:15;24.80;91.70
25192;DHT22;13143;50.924;5.320;2022-08-30T13:31:42;24.80;91.90
25192;DHT22;13143;50.924;5.320;2022-08-30T13:34:08;24.90;92.00
25192;DHT22;13143;50.924;5.320;2022-08-30T13:36:36;24.90;92.00
25192;DHT22;13143;50.924;5.320;2022-08-30T13:39:04;24.90;92.20
25192;DHT22;13143;50.924;5.320;2022-08-30T13:41:30;24.90;92.30
25192;DHT22;13143;50.924;5.320;2022-08-30T13:43:56;25.00;91.80
25192;DHT22;13143;50.924;5.320;2022-08-30T13:46:23;25.00;91.50
25192;DHT22;13143;50.924;5.320;2022-08-30T13:48:57;25.10;91.50
25192;DHT22;13143;50.924;5.320;2022-08-30T13:51:23;25.10;91.40
25192;DHT22;13143;50.924;5.320;2022-08-30T13:53:49;25.10;91.40
25192;DHT22;13143;50.924;5.320;2022-08-30T13:56:15;25.10;91.30
25192;DHT22;13143;50.924;5.320;2022-08-30T13:58:41;25.10;91.30
25192;DHT22;13143;50.924;5.320;2022-08-30T14:01:06;25.10;91.40
25192;DHT22;13143;50.924;5.320;2022-08-30T14:03:32;25.10;91.20
25192;DHT22;13143;50.924;5.320;2022-08-30T14:05:57;25.10;91.30
25192;DHT22;13143;50.924;5.320;2022-08-30T14:08:27;25.20;91.40
25192;DHT22;13143;50.924;5.320;2022-08-30T14:10:54;25.20;91.30
25192;DHT22;13143;50.924;5.320;2022-08-30T14:13:19;25.20;91.20
25192;DHT22;13143;50.924;5.320;2022-08-30T14:15:45;25.20;90.90
25192;DHT22;13143;50.924;5.320;2022-08-30T14:18:12;25.20;91.30
25192;DHT22;13143;50.924;5.320;2022-08-30T14:20:38;25.20;91.00
25192;DHT22;13143;50.924;5.320;2022-08-30T14:23:04;25.20;91.00
25192;DHT22;13143;50.924;5.320;2022-08-30T14:25:30;25.30;91.50
25192;DHT22;13143;50.924;5.320;2022-08-30T14:27:56;25.30;91.00
25192;DHT22;13143;50.924;5.320;2022-08-30T14:30:22;25.30;90.90
25192;DHT22;13143;50.924;5.320;2022-08-30T14:32:48;25.30;90.70
25192;DHT22;13143;50.924;5.320;2022-08-30T14:35:14;25.30;90.50
25192;DHT22;13143;50.924;5.320;2022-08-30T14:37:43;25.40;90.50
25192;DHT22;13143;50.924;5.320;2022-08-30T14:40:09;25.30;90.30
25192;DHT22;13143;50.924;5.320;2022-08-30T14:42:34;25.30;90.40
25192;DHT22;13143;50.924;5.320;2022-08-30T14:45:00;25.40;90.30
25192;DHT22;13143;50.924;5.320;2022-08-30T14:47:26;25.40;90.30
25192;DHT22;13143;50.924;5.320;2022-08-30T14:49:51;25.40;90.30
25192;DHT22;13143;50.924;5.320;2022-08-30T14:52:18;25.40;90.00
25192;DHT22;13143;50.924;5.320;2022-08-30T14:54:43;25.40;89.80
25192;DHT22;13143;50.924;5.320;2022-08-30T14:57:09;25.40;89.70
25192;DHT22;13143;50.924;5.320;2022-08-30T14:59:35;25.40;89.80
25192;DHT22;13143;50.924;5.320;2022-08-30T15:02:00;25.40;90.00
25192;DHT22;13143;50.924;5.320;2022-08-30T15:04:26;25.40;89.70
25192;DHT22;13143;50.924;5.320;2022-08-30T15:06:52;25.40;89.50
25192;DHT22;13143;50.924;5.320;2022-08-30T15:09:20;25.40;89.10
25192;DHT22;13143;50.924;5.320;2022-08-30T15:11:47;25.50;89.60
25192;DHT22;13143;50.924;5.320;2022-08-30T15:14:13;25.50;89.60
25192;DHT22;13143;50.924;5.320;2022-08-30T15:16:39;25.50;89.20
25192;DHT22;13143;50.924;5.320;2022-08-30T15:19:07;25.50;89.10
25192;DHT22;13143;50.924;5.320;2022-08-30T15:21:43;25.50;89.00
25192;DHT22;13143;50.924;5.320;2022-08-30T15:24:12;25.50;88.80
25192;DHT22;13143;50.924;5.320;2022-08-30T15:26:38;25.60;89.00
25192;DHT22;13143;50.924;5.320;2022-08-30T15:29:08;25.60;88.50
25192;DHT22;13143;50.924;5.320;2022-08-30T15:31:34;25.60;88.60
25192;DHT22;13143;50.924;5.320;2022-08-30T15:34:00;25.60;89.40
25192;DHT22;13143;50.924;5.320;2022-08-30T15:36:27;25.60;88.90
25192;DHT22;13143;50.924;5.320;2022-08-30T15:38:54;25.60;88.40
25192;DHT22;13143;50.924;5.320;2022-08-30T15:41:21;25.60;88.50
25192;DHT22;13143;50.924;5.320;2022-08-30T15:43:47;25.60;88.90
25192;DHT22;13143;50.924;5.320;2022-08-30T15:46:28;25.60;89.20
25192;DHT22;13143;50.924;5.320;2022-08-30T15:48:59;25.70;88.70
25192;DHT22;13143;50.924;5.320;2022-08-30T15:51:25;25.70;88.60
25192;DHT22;13143;50.924;5.320;2022-08-30T15:53:51;25.70;88.90
25192;DHT22;13143;50.924;5.320;2022-08-30T15:56:17;25.70;88.90
25192;DHT22;13143;50.924;5.320;2022-08-30T15:58:44;25.60;87.90
25192;DHT22;13143;50.924;5.320;2022-08-30T16:01:11;25.60;87.10
25192;DHT22;13143;50.924;5.320;2022-08-30T16:03:37;25.60;87.20
25192;DHT22;13143;50.924;5.320;2022-08-30T16:06:19;25.70;87.60
25192;DHT22;13143;50.924;5.320;2022-08-30T16:08:45;25.70;87.20
25192;DHT22;13143;50.924;5.320;2022-08-30T16:11:13;25.60;86.90
25192;DHT22;13143;50.924;5.320;2022-08-30T16:13:39;25.60;86.80
25192;DHT22;13143;50.924;5.320;2022-08-30T16:16:08;25.60;86.80
25192;DHT22;13143;50.924;5.320;2022-08-30T16:18:35;25.60;86.80
25192;DHT22;13143;50.924;5.320;2022-08-30T16:21:12;25.60;86.50
25192;DHT22;13143;50.924;5.320;2022-08-30T16:23:40;25.50;86.50
25192;DHT22;13143;50.924;5.320;2022-08-30T16:26:06;25.60;86.80
25192;DHT22;13143;50.924;5.320;2022-08-30T16:28:32;25.50;86.30
25192;DHT22;13143;50.924;5.320;2022-08-30T16:30:59;25.50;86.30
25192;DHT22;13143;50.924;5.320;2022-08-30T16:33:25;25.50;86.30
25192;DHT22;13143;50.924;5.320;2022-08-30T16:35:52;25.50;85.60
25192;DHT22;13143;50.924;5.320;2022-08-30T16:38:19;25.50;86.00
25192;DHT22;13143;50.924;5.320;2022-08-30T16:40:46;25.50;86.00
25192;DHT22;13143;50.924;5.320;2022-08-30T16:43:11;25.50;86.00
25192;DHT22;13143;50.924;5.320;2022-08-30T16:45:37;25.50;86.30
25192;DHT22;13143;50.924;5.320;2022-08-30T16:48:04;25.50;86.00
25192;DHT22;13143;50.924;5.320;2022-08-30T16:50:30;25.50;85.40
25192;DHT22;13143;50.924;5.320;2022-08-30T16:52:56;25.50;85.60
25192;DHT22;13143;50.924;5.320;2022-08-30T16:55:22;25.40;85.70
25192;DHT22;13143;50.924;5.320;2022-08-30T16:57:48;25.40;86.10
25192;DHT22;13143;50.924;5.320;2022-08-30T17:00:14;25.40;86.20
25192;DHT22;13143;50.924;5.320;2022-08-30T17:02:41;25.50;86.40
25192;DHT22;13143;50.924;5.320;2022-08-30T17:05:07;25.50;86.60
25192;DHT22;13143;50.924;5.320;2022-08-30T17:07:33;25.50;86.70
25192;DHT22;13143;50.924;5.320;2022-08-30T17:09:59;25.50;86.80
25192;DHT22;13143;50.924;5.320;2022-08-30T17:12:24;25.50;86.90
25192;DHT22;13143;50.924;5.320;2022-08-30T17:14:50;25.50;86.80
25192;DHT22;13143;50.924;5.320;2022-08-30T17:17:17;25.40;86.90
25192;DHT22;13143;50.924;5.320;2022-08-30T17:19:43;25.40;86.50
25192;DHT22;13143;50.924;5.320;2022-08-30T17:22:10;25.40;86.50
25192;DHT22;13143;50.924;5.320;2022-08-30T17:24:36;25.40;85.80
25192;DHT22;13143;50.924;5.320;2022-08-30T17:27:02;25.40;86.00
25192;DHT22;13143;50.924;5.320;2022-08-30T17:29:28;25.40;85.20